Time;durP1;ratioP1;P1;durP2;ratioP2;P2;SDS_P1;SDS_P2;PMS_P1;PMS_P2;Temp;Humidity;BMP_temperature;BMP_pressure;BME280_temperature;BME280_humidity;BME280_pressure;Samples;Min_cycle;Max_cycle;Signal;HPM_P1;HPM_P2
2024/01/16 00:00:57;;;;;;;3.58;1.83;;;;;;;;;;5114227;28;20052;-78
2024/01/16 00:03:23;;;;;;;4.00;2.00;;;;;;;;;;5109321;28;20050;-78
2024/01/16 00:05:49;;;;;;;3.00;2.05;;;;;;;;;;5085414;28;20020;-79
2024/01/16 00:08:16;;;;;;;2.78;1.67;;;;;;;;;;5099805;28;20020;-78
2024/01/16 00:10:42;;;;;;;4.60;2.00;;;;;;;;;;5080468;28;20478;-79
2024/01/16 00:13:08;;;;;;;3.28;1.55;;;;;;;;;;5102466;28;20024;-78
2024/01/16 00:15:35;;;;;;;4.15;1.52;;;;;;;;;;5081793;28;20028;-78
2024/01/16 00:18:01;;;;;;;4.13;1.83;;;;;;;;;;5102866;28;20024;-79
2024/01/16 00:20:27;;;;;;;2.88;1.63;;;;;;;;;;5103508;28;20502;-79
2024/01/16 00:22:53;;;;;;;3.80;1.48;;;;;;;;;;5087794;28;20085;-80
2024/01/16 00:25:21;;;;;;;4.43;1.58;;;;;;;;;;5115601;28;20039;-77
2024/01/16 00:27:47;;;;;;;2.30;1.60;;;;;;;;;;5109760;28;20020;-77
2024/01/16 00:30:13;;;;;;;3.67;1.48;;;;;;;;;;5110900;28;20034;-77
2024/01/16 00:32:40;;;;;;;4.90;1.98;;;;;;;;;;5113168;28;20081;-78
2024/01/16 00:35:06;;;;;;;4.72;2.13;;;;;;;;;;5091602;28;20043;-77
2024/01/16 00:37:33;;;;;;;2.90;1.15;;;;;;;;;;5110767;28;20016;-78
2024/01/16 00:39:59;;;;;;;1.55;1.33;;;;;;;;;;5093922;28;20107;-76
2024/01/16 00:42:25;;;;;;;3.80;1.67;;;;;;;;;;5090001;28;20043;-77
2024/01/16 00:44:51;;;;;;;1.27;0.90;;;;;;;;;;5084068;28;20031;-78
2024/01/16 00:47:18;;;;;;;2.28;1.40;;;;;;;;;;5104018;28;20028;-78
2024/01/16 00:49:44;;;;;;;2.05;1.33;;;;;;;;;;5110107;28;20032;-79
2024/01/16 00:52:10;;;;;;;1.90;1.30;;;;;;;;;;5107420;28;20032;-78
2024/01/16 00:54:36;;;;;;;1.52;1.10;;;;;;;;;;5100613;28;20028;-78
2024/01/16 00:57:03;;;;;;;2.13;1.40;;;;;;;;;;5098210;28;20016;-77
2024/01/16 00:59:29;;;;;;;3.78;1.20;;;;;;;;;;5099055;28;20387;-77
2024/01/16 01:01:55;;;;;;;2.70;1.40;;;;;;;;;;5083223;28;20031;-79
2024/01/16 01:04:21;;;;;;;2.35;1.35;;;;;;;;;;5102069;28;20405;-77
2024/01/16 01:06:47;;;;;;;3.03;1.58;;;;;;;;;;5108733;28;20036;-78
2024/01/16 01:09:13;;;;;;;3.20;1.23;;;;;;;;;;5101010;28;20024;-78
2024/01/16 01:11:39;;;;;;;1.52;1.13;;;;;;;;;;5100194;28;20026;-80
2024/01/16 01:14:05;;;;;;;2.40;0.95;;;;;;;;;;5080130;28;20040;-77
2024/01/16 01:16:32;;;;;;;2.50;1.05;;;;;;;;;;5100735;28;20012;-78
2024/01/16 01:18:58;;;;;;;2.22;1.30;;;;;;;;;;5100570;28;20111;-79
2024/01/16 01:21:26;;;;;;;1.38;1.23;;;;;;;;;;5079363;28;20398;-77
2024/01/16 01:23:52;;;;;;;1.60;1.25;;;;;;;;;;5096702;28;20039;-77
2024/01/16 01:26:19;;;;;;;1.58;0.90;;;;;;;;;;5079865;28;20024;-77
2024/01/16 01:28:45;;;;;;;2.08;1.00;;;;;;;;;;5099715;28;20487;-78
2024/01/16 01:31:12;;;;;;;1.35;1.25;;;;;;;;;;5104097;28;20501;-78
2024/01/16 01:33:38;;;;;;;2.90;1.27;;;;;;;;;;5104551;28;20391;-78
2024/01/16 01:36:04;;;;;;;1.58;1.25;;;;;;;;;;5084075;28;20052;-78
2024/01/16 01:38:30;;;;;;;1.85;1.10;;;;;;;;;;5098593;28;20024;-78
2024/01/16 01:40:57;;;;;;;4.10;1.23;;;;;;;;;;5098662;28;20122;-77
2024/01/16 01:43:24;;;;;;;3.33;1.50;;;;;;;;;;5100246;28;20028;-78
2024/01/16 01:46:10;;;;;;;1.63;1.15;;;;;;;;;;5099629;28;20063;-78
2024/01/16 01:48:38;;;;;;;2.13;1.15;;;;;;;;;;5086046;28;20522;-79
2024/01/16 01:51:04;;;;;;;2.42;1.35;;;;;;;;;;5104133;28;20028;-79
2024/01/16 01:53:31;;;;;;;3.40;1.38;;;;;;;;;;5084912;28;20032;-78
2024/01/16 01:55:57;;;;;;;2.00;1.10;;;;;;;;;;5098837;28;20032;-77
2024/01/16 01:58:23;;;;;;;1.95;0.98;;;;;;;;;;5098375;28;20035;-77
2024/01/16 02:00:50;;;;;;;2.53;1.48;;;;;;;;;;5094801;28;20027;-77
2024/01/16 02:03:16;;;;;;;1.88;1.05;;;;;;;;;;5095550;28;20036;-76
2024/01/16 02:05:43;;;;;;;1.95;1.20;;;;;;;;;;5095266;28;20455;-79
2024/01/16 02:08:09;;;;;;;1.85;1.30;;;;;;;;;;5098526;28;20398;-77
2024/01/16 02:10:38;;;;;;;2.28;1.20;;;;;;;;;;5096340;28;20027;-78
2024/01/16 02:13:04;;;;;;;2.33;1.08;;;;;;;;;;5098808;28;20035;-78
2024/01/16 02:15:30;;;;;;;1.75;0.90;;;;;;;;;;5099213;28;20579;-78
2024/01/16 02:17:57;;;;;;;2.90;0.85;;;;;;;;;;5100848;28;20529;-78
2024/01/16 02:20:24;;;;;;;3.97;1.17;;;;;;;;;;5099589;28;20040;-79
2024/01/16 02:22:52;;;;;;;3.90;1.42;;;;;;;;;;5098488;28;20479;-79
2024/01/16 02:25:18;;;;;;;1.67;1.00;;;;;;;;;;5096392;28;20028;-77
2024/01/16 02:27:45;;;;;;;2.70;1.25;;;;;;;;;;5095113;28;20314;-77
2024/01/16 02:30:11;;;;;;;3.25;1.20;;;;;;;;;;5100337;28;20027;-78
2024/01/16 02:32:37;;;;;;;2.22;1.38;;;;;;;;;;5097156;28;20035;-78
2024/01/16 02:35:05;;;;;;;2.05;1.08;;;;;;;;;;5115566;28;20038;-77
2024/01/16 02:37:31;;;;;;;1.95;1.13;;;;;;;;;;5117641;28;20020;-75
2024/01/16 02:39:58;;;;;;;0.88;0.73;;;;;;;;;;5098903;28;20036;-77
2024/01/16 02:42:24;;;;;;;1.23;0.70;;;;;;;;;;5113461;28;20044;-75
2024/01/16 02:44:50;;;;;;;1.33;1.08;;;;;;;;;;5109433;28;20039;-76
2024/01/16 02:47:16;;;;;;;1.35;1.05;;;;;;;;;;5110099;28;20031;-77
2024/01/16 02:49:42;;;;;;;1.83;1.00;;;;;;;;;;5110159;28;20119;-77
2024/01/16 02:52:08;;;;;;;1.42;0.90;;;;;;;;;;5111840;28;20045;-76
2024/01/16 02:54:34;;;;;;;2.10;1.42;;;;;;;;;;5112351;28;20037;-76
2024/01/16 02:57:00;;;;;;;1.75;1.23;;;;;;;;;;5112675;28;20032;-77
2024/01/16 02:59:28;;;;;;;2.70;1.52;;;;;;;;;;5114343;28;20064;-77
2024/01/16 03:01:54;;;;;;;1.08;0.70;;;;;;;;;;5110276;28;20039;-77
2024/01/16 03:04:20;;;;;;;2.00;1.27;;;;;;;;;;5115266;28;20028;-77
2024/01/16 03:06:46;;;;;;;1.35;0.85;;;;;;;;;;5095611;28;20043;-77
2024/01/16 03:09:13;;;;;;;1.48;0.88;;;;;;;;;;5113769;28;20012;-77
2024/01/16 03:11:39;;;;;;;3.08;1.20;;;;;;;;;;5102660;28;20027;-77
2024/01/16 03:14:05;;;;;;;5.10;1.33;;;;;;;;;;5105450;28;20024;-77
2024/01/16 03:16:32;;;;;;;1.95;1.10;;;;;;;;;;5114470;28;20042;-76
2024/01/16 03:18:58;;;;;;;2.17;1.10;;;;;;;;;;5108040;28;20522;-76
2024/01/16 03:21:24;;;;;;;2.08;1.10;;;;;;;;;;5110638;28;20016;-76
2024/01/16 03:23:50;;;;;;;3.45;1.42;;;;;;;;;;5097057;28;20012;-77
2024/01/16 03:26:17;;;;;;;5.30;1.77;;;;;;;;;;5108679;28;20032;-77
2024/01/16 03:28:43;;;;;;;3.03;1.52;;;;;;;;;;5086135;28;20028;-77
2024/01/16 03:31:09;;;;;;;2.05;1.10;;;;;;;;;;5101781;28;20036;-77
2024/01/16 03:33:35;;;;;;;2.40;1.02;;;;;;;;;;5097166;28;20012;-77
2024/01/16 03:36:02;;;;;;;2.42;1.30;;;;;;;;;;5089400;28;20458;-77
2024/01/16 03:38:28;;;;;;;1.75;0.93;;;;;;;;;;5108896;28;20016;-77
2024/01/16 03:40:54;;;;;;;3.45;1.27;;;;;;;;;;5108591;28;20028;-77
2024/01/16 03:43:20;;;;;;;1.13;0.82;;;;;;;;;;5109117;28;20032;-77
2024/01/16 03:45:47;;;;;;;2.15;1.17;;;;;;;;;;5107754;28;20090;-77
2024/01/16 03:48:13;;;;;;;5.60;1.20;;;;;;;;;;5099686;28;20028;-77
2024/01/16 03:50:43;;;;;;;2.10;1.15;;;;;;;;;;5106177;28;20028;-77
2024/01/16 03:53:09;;;;;;;2.33;0.90;;;;;;;;;;5102053;28;20080;-77
2024/01/16 03:55:35;;;;;;;2.28;1.38;;;;;;;;;;5107510;28;20028;-78
2024/01/16 03:58:01;;;;;;;1.45;0.73;;;;;;;;;;5109140;28;20076;-78
2024/01/16 04:00:28;;;;;;;2.05;1.30;;;;;;;;;;5088479;28;20054;-78
2024/01/16 04:02:54;;;;;;;3.65;1.60;;;;;;;;;;5110500;28;20052;-78
2024/01/16 04:05:20;;;;;;;2.10;1.05;;;;;;;;;;5087510;28;20028;-79
2024/01/16 04:07:46;;;;;;;2.15;1.40;;;;;;;;;;5098136;28;20028;-78
2024/01/16 04:10:12;;;;;;;3.15;1.45;;;;;;;;;;5098990;28;20027;-78
2024/01/16 04:12:38;;;;;;;3.13;1.42;;;;;;;;;;5103539;28;20012;-77
2024/01/16 04:15:05;;;;;;;3.00;1.67;;;;;;;;;;5112254;28;20004;-78
2024/01/16 04:17:31;;;;;;;3.83;1.15;;;;;;;;;;5107366;28;20024;-79
2024/01/16 04:19:57;;;;;;;2.00;1.15;;;;;;;;;;5099243;28;20028;-79
2024/01/16 04:22:23;;;;;;;3.63;2.05;;;;;;;;;;5098040;28;20275;-80
2024/01/16 04:24:49;;;;;;;3.08;1.30;;;;;;;;;;5099578;28;20032;-78
2024/01/16 04:27:15;;;;;;;3.67;1.52;;;;;;;;;;5100349;28;20032;-78
2024/01/16 04:29:41;;;;;;;2.78;1.17;;;;;;;;;;5099853;28;20020;-78
2024/01/16 04:32:08;;;;;;;3.13;1.27;;;;;;;;;;5078961;28;20028;-78
2024/01/16 04:34:34;;;;;;;2.60;1.35;;;;;;;;;;5087826;28;20110;-78
2024/01/16 04:37:00;;;;;;;3.00;1.73;;;;;;;;;;5095892;28;20095;-78
2024/01/16 04:39:26;;;;;;;2.35;1.23;;;;;;;;;;5073337;28;20040;-78
2024/01/16 04:41:52;;;;;;;1.85;1.30;;;;;;;;;;5096759;28;20024;-79
2024/01/16 04:44:18;;;;;;;2.13;1.27;;;;;;;;;;5097543;28;20024;-79
2024/01/16 04:46:44;;;;;;;1.75;1.23;;;;;;;;;;5092943;28;20033;-80
2024/01/16 04:49:11;;;;;;;1.70;1.30;;;;;;;;;;5093087;28;20035;-79
2024/01/16 04:51:38;;;;;;;1.90;1.30;;;;;;;;;;5079781;28;20046;-78
2024/01/16 04:54:04;;;;;;;2.78;1.48;;;;;;;;;;5097325;28;20059;-78
2024/01/16 04:56:30;;;;;;;1.98;1.13;;;;;;;;;;5096591;28;20028;-80
2024/01/16 04:58:56;;;;;;;4.40;1.10;;;;;;;;;;5083010;28;20043;-79
2024/01/16 05:01:22;;;;;;;1.92;1.23;;;;;;;;;;5104548;28;20080;-79
2024/01/16 05:03:48;;;;;;;4.03;1.20;;;;;;;;;;5101307;28;20017;-78
2024/01/16 05:06:15;;;;;;;4.10;1.63;;;;;;;;;;5096853;28;20384;-77
2024/01/16 05:08:41;;;;;;;1.67;1.02;;;;;;;;;;5117410;28;20036;-78
2024/01/16 05:11:08;;;;;;;2.78;1.58;;;;;;;;;;5116196;28;20028;-78
2024/01/16 05:13:34;;;;;;;3.97;1.10;;;;;;;;;;5113835;28;20032;-78
2024/01/16 05:16:00;;;;;;;2.88;1.65;;;;;;;;;;5099716;28;20023;-78
2024/01/16 05:18:26;;;;;;;2.33;1.48;;;;;;;;;;5098068;28;20040;-78
2024/01/16 05:20:53;;;;;;;2.58;1.15;;;;;;;;;;5098441;28;20084;-78
2024/01/16 05:23:19;;;;;;;2.50;1.20;;;;;;;;;;5098794;28;20056;-78
2024/01/16 05:25:45;;;;;;;2.92;1.30;;;;;;;;;;5118144;28;20012;-78
2024/01/16 05:28:11;;;;;;;2.40;1.25;;;;;;;;;;5116779;28;20027;-77
2024/01/16 05:30:37;;;;;;;2.80;1.38;;;;;;;;;;5117479;28;20054;-77
2024/01/16 05:33:03;;;;;;;1.42;1.17;;;;;;;;;;5111292;28;20048;-79
2024/01/16 05:35:29;;;;;;;2.45;1.20;;;;;;;;;;5103489;28;20031;-78
2024/01/16 05:37:56;;;;;;;2.25;1.40;;;;;;;;;;5084347;28;20046;-78
2024/01/16 05:40:22;;;;;;;3.60;1.45;;;;;;;;;;5100126;28;20070;-78
2024/01/16 05:42:51;;;;;;;1.55;1.15;;;;;;;;;;5100584;28;20024;-77
2024/01/16 05:45:18;;;;;;;4.20;1.20;;;;;;;;;;5098269;28;20048;-77
2024/01/16 05:47:47;;;;;;;1.73;1.02;;;;;;;;;;5109976;28;20020;-78
2024/01/16 05:50:16;;;;;;;2.00;1.30;;;;;;;;;;5117814;28;20024;-77
2024/01/16 05:52:42;;;;;;;3.15;1.48;;;;;;;;;;5117527;28;20017;-77
2024/01/16 05:55:08;;;;;;;1.40;0.98;;;;;;;;;;5100885;28;20027;-78
2024/01/16 05:57:34;;;;;;;4.70;1.38;;;;;;;;;;5118347;28;20020;-76
2024/01/16 06:00:03;;;;;;;3.00;1.40;;;;;;;;;;5100787;28;20020;-77
2024/01/16 06:02:29;;;;;;;2.03;1.02;;;;;;;;;;5118337;28;20012;-77
2024/01/16 06:04:55;;;;;;;2.80;1.63;;;;;;;;;;5119072;28;20072;-77
2024/01/16 06:07:21;;;;;;;2.05;1.45;;;;;;;;;;5118121;28;20051;-75
2024/01/16 06:09:47;;;;;;;4.43;1.75;;;;;;;;;;5117775;28;20027;-75
2024/01/16 06:12:13;;;;;;;1.52;1.23;;;;;;;;;;5117697;28;20071;-76
2024/01/16 06:14:40;;;;;;;3.17;1.38;;;;;;;;;;5118374;28;20016;-76
2024/01/16 06:17:06;;;;;;;2.53;1.25;;;;;;;;;;5116307;28;20140;-76
2024/01/16 06:19:35;;;;;;;1.67;1.27;;;;;;;;;;5116849;28;20028;-76
2024/01/16 06:22:01;;;;;;;1.98;1.02;;;;;;;;;;5119965;28;20008;-77
2024/01/16 06:24:28;;;;;;;2.30;1.23;;;;;;;;;;5115776;28;20031;-78
2024/01/16 06:26:55;;;;;;;2.05;1.30;;;;;;;;;;5113580;28;20023;-73
2024/01/16 06:29:21;;;;;;;2.00;1.02;;;;;;;;;;5117414;28;20024;-77
2024/01/16 06:31:47;;;;;;;1.90;1.05;;;;;;;;;;5116131;28;20008;-75
2024/01/16 06:34:13;;;;;;;3.72;1.38;;;;;;;;;;5108625;28;20032;-79
2024/01/16 06:36:39;;;;;;;1.52;1.23;;;;;;;;;;5103673;28;20481;-76
2024/01/16 06:39:06;;;;;;;1.63;1.00;;;;;;;;;;5116245;28;20030;-75
2024/01/16 06:41:32;;;;;;;4.88;1.45;;;;;;;;;;5098202;28;20103;-77
2024/01/16 06:43:58;;;;;;;2.55;0.90;;;;;;;;;;5101443;28;20020;-75
2024/01/16 06:46:25;;;;;;;1.20;0.90;;;;;;;;;;5099018;28;20028;-77
2024/01/16 06:48:51;;;;;;;1.00;0.90;;;;;;;;;;5109849;28;20066;-75
2024/01/16 06:51:18;;;;;;;1.45;1.02;;;;;;;;;;5073585;22;20033;-76
2024/01/16 06:53:44;;;;;;;1.02;0.93;;;;;;;;;;5061445;28;20043;-79
2024/01/16 06:56:10;;;;;;;3.22;1.45;;;;;;;;;;5048815;28;20039;-78
2024/01/16 06:58:36;;;;;;;2.13;1.40;;;;;;;;;;5048377;28;20036;-80
2024/01/16 07:01:02;;;;;;;2.20;1.23;;;;;;;;;;5049489;28;20120;-76
2024/01/16 07:03:29;;;;;;;5.00;1.40;;;;;;;;;;5034917;28;20040;-77
2024/01/16 07:05:55;;;;;;;3.47;1.50;;;;;;;;;;5035825;28;20033;-78
2024/01/16 07:08:21;;;;;;;1.58;1.13;;;;;;;;;;5052881;28;20517;-77
2024/01/16 07:10:47;;;;;;;2.30;1.17;;;;;;;;;;5051234;28;20026;-78
2024/01/16 07:13:14;;;;;;;1.50;1.00;;;;;;;;;;5041841;28;20059;-78
2024/01/16 07:15:40;;;;;;;2.42;0.93;;;;;;;;;;5036719;28;20083;-78
2024/01/16 07:18:06;;;;;;;1.35;0.80;;;;;;;;;;5040877;28;20452;-79
2024/01/16 07:20:35;;;;;;;3.33;1.17;;;;;;;;;;5040176;28;20059;-80
2024/01/16 07:23:01;;;;;;;1.25;0.90;;;;;;;;;;5046891;28;20037;-81
2024/01/16 07:25:28;;;;;;;2.55;0.90;;;;;;;;;;5043832;28;20049;-78
2024/01/16 07:27:56;;;;;;;2.08;1.10;;;;;;;;;;5042639;28;20387;-79
2024/01/16 07:30:22;;;;;;;2.15;0.68;;;;;;;;;;5048336;28;20053;-77
2024/01/16 07:32:50;;;;;;;3.55;1.13;;;;;;;;;;5054514;28;20063;-78
2024/01/16 07:35:16;;;;;;;1.23;1.00;;;;;;;;;;5043480;28;20109;-79
2024/01/16 07:37:42;;;;;;;0.70;0.70;;;;;;;;;;5044201;28;20101;-79
2024/01/16 07:40:09;;;;;;;1.73;0.80;;;;;;;;;;5027033;28;20153;-80
2024/01/16 07:42:39;;;;;;;2.75;1.30;;;;;;;;;;5045929;28;20084;-79
2024/01/16 07:45:05;;;;;;;2.33;1.15;;;;;;;;;;5030278;28;20125;-80
2024/01/16 07:47:31;;;;;;;1.90;0.95;;;;;;;;;;5034533;28;20113;-78
2024/01/16 07:49:58;;;;;;;1.83;1.23;;;;;;;;;;5035437;28;20030;-79
2024/01/16 07:52:24;;;;;;;3.58;1.27;;;;;;;;;;5035875;28;20022;-79
2024/01/16 07:54:50;;;;;;;3.03;1.27;;;;;;;;;;5037408;28;20036;-79
2024/01/16 07:57:16;;;;;;;1.70;1.05;;;;;;;;;;5031647;28;20026;-81
2024/01/16 07:59:42;;;;;;;1.65;1.15;;;;;;;;;;5048233;28;20083;-78
2024/01/16 08:02:18;;;;;;;2.65;1.02;;;;;;;;;;5055855;28;20042;-78
2024/01/16 08:04:46;;;;;;;2.00;1.13;;;;;;;;;;5046095;28;20034;-79
2024/01/16 08:07:12;;;;;;;1.80;0.80;;;;;;;;;;5050421;28;20424;-79
2024/01/16 08:09:38;;;;;;;2.00;1.10;;;;;;;;;;5047205;28;20056;-80
2024/01/16 08:12:05;;;;;;;1.42;0.70;;;;;;;;;;5043901;28;20041;-79
2024/01/16 08:14:31;;;;;;;1.33;1.02;;;;;;;;;;5041637;28;20041;-80
2024/01/16 08:17:01;;;;;;;2.65;1.00;;;;;;;;;;5047685;28;20048;-79
2024/01/16 08:19:27;;;;;;;1.95;1.30;;;;;;;;;;5042997;28;20085;-79
2024/01/16 08:21:53;;;;;;;2.22;1.40;;;;;;;;;;5044846;28;20322;-80
2024/01/16 08:24:19;;;;;;;2.95;1.40;;;;;;;;;;5051781;28;20479;-80
2024/01/16 08:26:45;;;;;;;3.10;1.20;;;;;;;;;;5057599;28;20041;-81
2024/01/16 08:29:17;;;;;;;2.15;1.52;;;;;;;;;;5046811;28;20026;-79
2024/01/16 08:31:43;;;;;;;3.55;1.48;;;;;;;;;;5053794;28;20029;-80
2024/01/16 08:34:24;;;;;;;2.25;1.35;;;;;;;;;;5060389;28;20029;-81
2024/01/16 08:36:50;;;;;;;3.00;1.35;;;;;;;;;;5065474;28;20129;-80
2024/01/16 08:39:16;;;;;;;2.20;1.23;;;;;;;;;;5074643;28;20024;-80
2024/01/16 08:41:45;;;;;;;2.33;1.30;;;;;;;;;;5069117;28;20029;-81
2024/01/16 08:44:12;;;;;;;3.22;1.73;;;;;;;;;;5063406;28;20071;-79
2024/01/16 08:46:38;;;;;;;2.65;1.60;;;;;;;;;;5068334;28;20038;-81
2024/01/16 08:49:04;;;;;;;2.53;1.50;;;;;;;;;;5055305;28;20026;-81
2024/01/16 08:51:31;;;;;;;2.65;1.40;;;;;;;;;;5045142;28;20026;-81
2024/01/16 08:53:57;;;;;;;2.97;1.50;;;;;;;;;;5060714;28;20031;-81
2024/01/16 08:56:23;;;;;;;3.03;1.70;;;;;;;;;;5063605;28;20037;-81
2024/01/16 08:58:50;;;;;;;2.28;1.35;;;;;;;;;;5055594;28;20024;-80
2024/01/16 09:01:18;;;;;;;2.38;1.42;;;;;;;;;;5056657;28;20048;-79
2024/01/16 09:03:44;;;;;;;2.83;1.75;;;;;;;;;;5050779;28;20034;-81
2024/01/16 09:06:11;;;;;;;3.30;1.80;;;;;;;;;;5045050;28;20096;-81
2024/01/16 09:08:37;;;;;;;2.03;1.65;;;;;;;;;;5050327;28;20091;-81
2024/01/16 09:11:03;;;;;;;3.00;1.80;;;;;;;;;;5049788;28;20041;-80
2024/01/16 09:13:29;;;;;;;3.17;1.83;;;;;;;;;;5055678;28;20026;-81
2024/01/16 09:15:55;;;;;;;2.78;1.55;;;;;;;;;;5043393;28;20056;-80
2024/01/16 09:18:22;;;;;;;3.38;1.67;;;;;;;;;;5061333;28;20033;-78
2024/01/16 09:20:49;;;;;;;3.55;1.67;;;;;;;;;;5063557;28;20018;-79
2024/01/16 09:23:15;;;;;;;3.22;1.70;;;;;;;;;;5056656;28;20080;-80
2024/01/16 09:25:41;;;;;;;3.33;1.30;;;;;;;;;;5048797;28;20038;-79
2024/01/16 09:28:08;;;;;;;1.90;1.40;;;;;;;;;;5054620;28;20055;-79
2024/01/16 09:30:35;;;;;;;2.53;1.50;;;;;;;;;;5044273;28;20033;-80
2024/01/16 09:33:04;;;;;;;3.72;1.80;;;;;;;;;;5036492;28;20037;-80
2024/01/16 09:35:30;;;;;;;2.90;1.80;;;;;;;;;;5042159;28;20021;-80
2024/01/16 09:37:56;;;;;;;3.38;1.98;;;;;;;;;;5042399;28;20033;-79
2024/01/16 09:40:22;;;;;;;2.65;1.58;;;;;;;;;;5058726;28;20029;-80
2024/01/16 09:42:49;;;;;;;1.30;1.10;;;;;;;;;;5044439;28;20033;-80
2024/01/16 09:45:18;;;;;;;2.97;1.40;;;;;;;;;;5047281;28;20037;-80
2024/01/16 09:47:44;;;;;;;2.53;1.25;;;;;;;;;;5053138;28;20112;-80
2024/01/16 09:50:11;;;;;;;3.55;2.08;;;;;;;;;;5048433;28;20025;-79
2024/01/16 09:52:37;;;;;;;4.82;1.90;;;;;;;;;;5027349;28;20025;-80
2024/01/16 09:55:03;;;;;;;2.58;1.33;;;;;;;;;;5033133;28;20025;-80
2024/01/16 09:57:30;;;;;;;2.42;1.42;;;;;;;;;;5047242;28;20119;-79
2024/01/16 09:59:57;;;;;;;2.25;1.27;;;;;;;;;;5051549;28;20029;-79
2024/01/16 10:02:23;;;;;;;2.05;1.67;;;;;;;;;;5048491;28;20021;-78
2024/01/16 10:04:49;;;;;;;2.22;1.50;;;;;;;;;;5045084;28;20040;-79
2024/01/16 10:07:16;;;;;;;2.08;1.25;;;;;;;;;;5045831;28;20044;-79
2024/01/16 10:09:43;;;;;;;1.92;1.20;;;;;;;;;;5037860;28;20033;-80
2024/01/16 10:12:10;;;;;;;1.70;1.40;;;;;;;;;;5053565;28;20032;-80
2024/01/16 10:14:38;;;;;;;2.33;1.63;;;;;;;;;;5041887;28;20022;-80
2024/01/16 10:17:18;;;;;;;2.70;1.80;;;;;;;;;;5046097;28;20013;-80
2024/01/16 10:19:52;;;;;;;1.98;1.65;;;;;;;;;;5035878;28;20025;-79
2024/01/16 10:22:22;;;;;;;1.52;1.30;;;;;;;;;;5039318;28;20032;-80
2024/01/16 10:24:49;;;;;;;2.45;1.50;;;;;;;;;;5048861;28;20029;-79
2024/01/16 10:27:18;;;;;;;2.47;1.73;;;;;;;;;;5043638;28;20017;-79
2024/01/16 10:29:57;;;;;;;2.80;1.60;;;;;;;;;;5038814;28;20029;-79
2024/01/16 10:32:29;;;;;;;1.38;1.27;;;;;;;;;;5039936;28;20029;-79
2024/01/16 10:35:06;;;;;;;1.38;1.27;;;;;;;;;;5048629;28;20172;-79
2024/01/16 10:37:43;;;;;;;2.25;1.58;;;;;;;;;;5054059;28;20033;-80
2024/01/16 10:40:09;;;;;;;2.85;1.73;;;;;;;;;;5039038;28;20607;-78
2024/01/16 10:42:35;;;;;;;2.80;1.85;;;;;;;;;;5039101;28;20375;-79
2024/01/16 10:45:02;;;;;;;3.40;1.73;;;;;;;;;;5032535;28;20383;-80
2024/01/16 10:47:28;;;;;;;2.95;1.40;;;;;;;;;;5026832;28;20018;-79
2024/01/16 10:49:55;;;;;;;3.13;1.75;;;;;;;;;;5045553;28;20395;-79
2024/01/16 10:52:21;;;;;;;2.85;1.80;;;;;;;;;;5033744;28;20030;-78
2024/01/16 10:54:50;;;;;;;2.33;1.73;;;;;;;;;;5030487;28;20022;-79
2024/01/16 10:57:17;;;;;;;2.90;1.58;;;;;;;;;;5030969;28;20021;-76
2024/01/16 10:59:47;;;;;;;3.10;1.38;;;;;;;;;;5047720;28;20037;-78
2024/01/16 11:02:15;;;;;;;2.35;1.00;;;;;;;;;;5042101;28;20460;-78
2024/01/16 11:04:43;;;;;;;1.15;1.02;;;;;;;;;;5037594;28;20033;-79
2024/01/16 11:07:09;;;;;;;1.98;1.38;;;;;;;;;;5049686;28;20021;-78
2024/01/16 11:09:36;;;;;;;1.95;1.30;;;;;;;;;;5041540;28;20016;-78
2024/01/16 11:12:03;;;;;;;1.02;0.90;;;;;;;;;;5046706;28;20018;-79
2024/01/16 11:14:31;;;;;;;1.33;1.20;;;;;;;;;;5039011;28;20028;-78
2024/01/16 11:17:00;;;;;;;2.28;1.30;;;;;;;;;;5049224;28;20025;-79
2024/01/16 11:19:27;;;;;;;1.23;1.10;;;;;;;;;;5043628;28;20077;-79
2024/01/16 11:21:55;;;;;;;1.35;0.98;;;;;;;;;;5053526;28;20052;-80
2024/01/16 11:24:21;;;;;;;1.92;1.13;;;;;;;;;;5046015;28;20017;-78
2024/01/16 11:26:47;;;;;;;3.72;1.02;;;;;;;;;;5038866;28;20022;-79
2024/01/16 11:29:29;;;;;;;1.08;0.88;;;;;;;;;;5037308;28;20044;-80
2024/01/16 11:31:55;;;;;;;0.77;0.70;;;;;;;;;;5030549;28;20106;-80
2024/01/16 11:34:40;;;;;;;0.93;0.90;;;;;;;;;;5043270;28;20036;-79
2024/01/16 11:37:07;;;;;;;1.38;0.88;;;;;;;;;;5040278;28;20050;-81
2024/01/16 11:39:33;;;;;;;1.00;0.80;;;;;;;;;;5049794;28;20144;-80
2024/01/16 11:42:02;;;;;;;1.25;0.85;;;;;;;;;;5038774;28;20028;-78
2024/01/16 11:44:37;;;;;;;1.00;0.50;;;;;;;;;;5047518;28;20373;-79
2024/01/16 11:47:04;;;;;;;0.63;0.60;;;;;;;;;;5049613;28;20021;-78
2024/01/16 11:49:31;;;;;;;0.82;0.77;;;;;;;;;;5043914;28;20025;-79
2024/01/16 11:51:58;;;;;;;0.70;0.70;;;;;;;;;;5032445;28;20400;-78
2024/01/16 11:54:24;;;;;;;1.40;0.70;;;;;;;;;;5045441;28;20112;-79
2024/01/16 11:57:02;;;;;;;0.70;0.60;;;;;;;;;;5032713;28;20029;-78
2024/01/16 11:59:49;;;;;;;0.40;0.40;;;;;;;;;;5052868;28;20060;-78
2024/01/16 12:02:19;;;;;;;0.82;0.77;;;;;;;;;;5047449;28;20043;-78
2024/01/16 12:04:53;;;;;;;0.57;0.57;;;;;;;;;;5052009;28;20065;-78
2024/01/16 12:07:19;;;;;;;0.65;0.40;;;;;;;;;;5035985;28;20048;-78
2024/01/16 12:09:45;;;;;;;0.57;0.40;;;;;;;;;;5058857;28;20033;-78
2024/01/16 12:12:15;;;;;;;1.15;0.60;;;;;;;;;;5064550;28;20022;-79
2024/01/16 12:14:41;;;;;;;0.40;0.40;;;;;;;;;;5054226;28;20009;-78
2024/01/16 12:17:15;;;;;;;1.17;0.50;;;;;;;;;;5046799;28;20033;-78
2024/01/16 12:19:43;;;;;;;0.38;0.38;;;;;;;;;;5053454;28;20057;-79
2024/01/16 12:22:09;;;;;;;1.48;0.60;;;;;;;;;;5038591;28;20484;-78
2024/01/16 12:24:36;;;;;;;1.27;0.70;;;;;;;;;;5031460;28;20497;-78
2024/01/16 12:27:04;;;;;;;0.43;0.43;;;;;;;;;;5037770;28;20468;-78
2024/01/16 12:29:33;;;;;;;0.63;0.60;;;;;;;;;;5039954;28;20021;-79
2024/01/16 12:32:08;;;;;;;0.57;0.50;;;;;;;;;;5032678;28;20033;-78
2024/01/16 12:34:35;;;;;;;0.70;0.60;;;;;;;;;;5037595;28;20036;-78
2024/01/16 12:37:07;;;;;;;0.40;0.40;;;;;;;;;;5052362;28;20029;-78
2024/01/16 12:39:35;;;;;;;0.55;0.40;;;;;;;;;;5043805;28;20032;-80
2024/01/16 12:42:02;;;;;;;0.50;0.40;;;;;;;;;;5028793;28;20065;-80
2024/01/16 12:44:29;;;;;;;0.90;0.68;;;;;;;;;;5043816;28;20066;-79
2024/01/16 12:46:55;;;;;;;1.20;0.77;;;;;;;;;;5047408;28;20029;-79
2024/01/16 12:49:22;;;;;;;1.08;0.60;;;;;;;;;;5044322;28;20021;-79
2024/01/16 12:51:49;;;;;;;0.40;0.40;;;;;;;;;;5039142;28;20033;-79
2024/01/16 12:54:17;;;;;;;1.25;0.43;;;;;;;;;;5038579;28;20357;-79
2024/01/16 12:56:43;;;;;;;0.50;0.38;;;;;;;;;;5037919;28;20021;-79
2024/01/16 12:59:11;;;;;;;0.40;0.40;;;;;;;;;;5032970;28;20418;-79
2024/01/16 13:01:41;;;;;;;0.43;0.40;;;;;;;;;;5032098;28;20030;-81
2024/01/16 13:04:08;;;;;;;0.50;0.30;;;;;;;;;;5038992;28;20041;-79
2024/01/16 13:06:35;;;;;;;0.47;0.47;;;;;;;;;;5042789;28;20033;-79
2024/01/16 13:09:15;;;;;;;1.17;0.30;;;;;;;;;;5030239;28;20025;-80
2024/01/16 13:11:51;;;;;;;1.02;0.43;;;;;;;;;;5041156;28;20025;-81
2024/01/16 13:14:17;;;;;;;0.93;0.50;;;;;;;;;;5040162;28;20017;-78
2024/01/16 13:16:43;;;;;;;0.50;0.50;;;;;;;;;;5038084;28;20026;-80
2024/01/16 13:19:10;;;;;;;0.30;0.30;;;;;;;;;;5046865;28;20097;-78
2024/01/16 13:21:37;;;;;;;0.40;0.40;;;;;;;;;;5028670;28;20022;-78
2024/01/16 13:24:04;;;;;;;0.10;0.10;;;;;;;;;;5029386;28;20037;-80
2024/01/16 13:26:30;;;;;;;0.52;0.30;;;;;;;;;;5036201;28;20045;-78
2024/01/16 13:28:57;;;;;;;0.52;0.30;;;;;;;;;;5053350;28;20025;-79
2024/01/16 13:31:23;;;;;;;0.50;0.50;;;;;;;;;;5040554;28;20105;-79
2024/01/16 13:33:49;;;;;;;0.45;0.30;;;;;;;;;;5047239;28;20022;-78
2024/01/16 13:36:16;;;;;;;0.88;0.30;;;;;;;;;;5046453;28;20036;-79
2024/01/16 13:38:42;;;;;;;0.20;0.20;;;;;;;;;;5051012;28;20014;-80
2024/01/16 13:41:09;;;;;;;0.40;0.30;;;;;;;;;;5038708;28;20491;-80
2024/01/16 13:43:35;;;;;;;0.30;0.30;;;;;;;;;;5029752;28;20048;-77
2024/01/16 13:46:03;;;;;;;0.28;0.20;;;;;;;;;;5026353;28;20061;-77
2024/01/16 13:48:29;;;;;;;0.40;0.32;;;;;;;;;;5035001;28;20521;-77
2024/01/16 13:50:56;;;;;;;0.10;0.10;;;;;;;;;;5027786;28;20034;-79
2024/01/16 13:53:23;;;;;;;0.47;0.30;;;;;;;;;;5018931;28;20022;-78
2024/01/16 13:55:49;;;;;;;0.38;0.38;;;;;;;;;;5026396;28;20029;-79
2024/01/16 13:58:15;;;;;;;0.40;0.40;;;;;;;;;;5023409;28;20013;-78
2024/01/16 14:00:41;;;;;;;0.70;0.70;;;;;;;;;;5035742;28;20029;-80
2024/01/16 14:03:07;;;;;;;0.32;0.30;;;;;;;;;;5033223;28;20032;-79
2024/01/16 14:05:34;;;;;;;0.40;0.40;;;;;;;;;;5038911;28;20506;-79
2024/01/16 14:08:03;;;;;;;0.65;0.20;;;;;;;;;;5037425;28;20407;-79
2024/01/16 14:10:29;;;;;;;1.67;0.22;;;;;;;;;;5028140;28;20021;-79
2024/01/16 14:12:56;;;;;;;0.35;0.35;;;;;;;;;;5023722;28;20030;-78
2024/01/16 14:15:23;;;;;;;0.80;0.52;;;;;;;;;;5034038;28;20014;-78
2024/01/16 14:17:50;;;;;;;0.68;0.50;;;;;;;;;;5035378;28;20060;-78
2024/01/16 14:20:17;;;;;;;3.25;0.65;;;;;;;;;;5045825;28;20033;-79
2024/01/16 14:22:44;;;;;;;0.60;0.60;;;;;;;;;;5061232;28;20021;-80
2024/01/16 14:25:14;;;;;;;0.57;0.55;;;;;;;;;;5056883;28;20005;-80
2024/01/16 14:27:42;;;;;;;1.42;0.60;;;;;;;;;;5052804;28;20014;-79
2024/01/16 14:30:13;;;;;;;1.13;0.80;;;;;;;;;;5032904;28;20033;-80
2024/01/16 14:32:40;;;;;;;0.55;0.55;;;;;;;;;;5073047;22;20044;-79
2024/01/16 14:35:11;;;;;;;0.95;0.55;;;;;;;;;;5092333;28;20230;-80
2024/01/16 14:37:37;;;;;;;0.85;0.57;;;;;;;;;;5078094;28;20057;-78
2024/01/16 14:40:15;;;;;;;0.95;0.60;;;;;;;;;;5085811;28;20032;-78
2024/01/16 14:42:44;;;;;;;0.52;0.45;;;;;;;;;;5077894;28;20093;-78